Time;durP1;ratioP1;P1;durP2;ratioP2;P2;SDS_P1;SDS_P2;PMS_P1;PMS_P2;Temp;Humidity;BMP_temperature;BMP_pressure;BME280_temperature;BME280_humidity;BME280_pressure;Samples;Min_cycle;Max_cycle;Signal;HPM_P1;HPM_P2
2021/06/15 00:01:49;;;;;;;20.40;12.87;;;21.80;41.50;;;;;;5148011;27;20444;-87
2021/06/15 00:04:16;;;;;;;6.57;4.67;;;21.70;41.30;;;;;;5144682;27;20512;-86
2021/06/15 00:06:43;;;;;;;9.50;4.50;;;21.20;42.00;;;;;;5150283;27;20487;-87
2021/06/15 00:09:10;;;;;;;14.03;5.07;;;20.70;42.90;;;;;;5148995;27;20965;-87
2021/06/15 00:11:37;;;;;;;7.80;4.30;;;20.40;43.70;;;;;;5146984;27;20498;-86
2021/06/15 00:14:06;;;;;;;7.90;5.10;;;20.50;43.90;;;;;;5146179;27;20934;-87
2021/06/15 00:16:33;;;;;;;4.80;4.10;;;20.60;43.50;;;;;;5155272;27;20444;-87
2021/06/15 00:19:00;;;;;;;5.70;4.30;;;20.90;44.00;;;;;;5160663;27;20472;-86
2021/06/15 00:21:28;;;;;;;5.37;4.00;;;20.90;43.30;;;;;;5160946;27;20416;-86
2021/06/15 00:23:55;;;;;;;8.53;5.10;;;21.00;42.70;;;;;;5152776;27;20512;-86
2021/06/15 00:26:21;;;;;;;8.70;4.80;;;21.10;42.80;;;;;;5155478;27;20452;-85
2021/06/15 00:28:48;;;;;;;6.73;4.80;;;21.00;43.00;;;;;;5160875;27;20469;-85
2021/06/15 00:31:17;;;;;;;10.17;4.43;;;21.10;43.00;;;;;;5160427;27;20429;-87
2021/06/15 00:33:43;;;;;;;6.63;4.50;;;21.10;43.00;;;;;;5160357;27;20454;-86
2021/06/15 00:36:10;;;;;;;6.50;4.43;;;21.10;42.60;;;;;;5149332;27;20472;-87
2021/06/15 00:38:37;;;;;;;8.73;5.30;;;21.00;42.90;;;;;;5139771;27;20452;-87
2021/06/15 00:41:04;;;;;;;21.63;4.47;;;20.90;43.10;;;;;;5139096;27;20457;-87
2021/06/15 00:43:31;;;;;;;11.83;4.23;;;20.80;43.30;;;;;;5143724;27;20456;-87
2021/06/15 00:45:58;;;;;;;19.47;5.70;;;20.60;43.70;;;;;;5153873;27;20469;-87
2021/06/15 00:48:33;;;;;;;12.90;5.73;;;20.50;43.70;;;;;;5154399;27;20475;-85
2021/06/15 00:51:01;;;;;;;8.50;6.50;;;20.50;43.80;;;;;;5153392;27;20485;-85
2021/06/15 00:53:28;;;;;;;24.67;6.63;;;20.60;43.50;;;;;;5152224;27;20433;-85
2021/06/15 00:55:55;;;;;;;12.37;5.23;;;20.60;43.40;;;;;;5152023;27;20440;-85
2021/06/15 00:58:22;;;;;;;14.43;5.77;;;20.50;43.50;;;;;;5142230;27;20540;-85
2021/06/15 01:00:50;;;;;;;7.37;4.70;;;20.50;43.80;;;;;;5141258;27;20564;-85
2021/06/15 01:03:17;;;;;;;11.83;6.30;;;20.60;43.80;;;;;;5141678;27;20527;-85
2021/06/15 01:05:48;;;;;;;15.33;8.00;;;20.50;44.00;;;;;;5140742;27;20448;-85
2021/06/15 01:08:23;;;;;;;6.83;4.60;;;20.60;44.30;;;;;;5139052;27;20934;-85
2021/06/15 01:11:00;;;;;;;14.03;6.87;;;20.20;44.70;;;;;;5138514;27;20519;-85
2021/06/15 01:13:43;;;;;;;12.40;7.40;;;20.20;45.20;;;;;;5141379;27;20463;-85
2021/06/15 01:16:20;;;;;;;5.17;4.30;;;20.20;44.80;;;;;;5138506;27;20501;-85
2021/06/15 01:18:51;;;;;;;8.30;4.80;;;20.20;45.40;;;;;;5138950;27;20813;-86
2021/06/15 01:21:22;;;;;;;7.90;4.13;;;20.30;44.80;;;;;;5138939;27;20440;-86
2021/06/15 01:24:03;;;;;;;6.90;4.47;;;20.80;44.30;;;;;;5138287;27;20515;-85
2021/06/15 01:26:59;;;;;;;6.60;4.23;;;21.10;43.40;;;;;;5138800;27;20468;-85
2021/06/15 01:29:31;;;;;;;6.37;4.83;;;21.20;43.20;;;;;;5117344;27;20543;-85
2021/06/15 01:32:03;;;;;;;18.00;5.47;;;21.00;43.20;;;;;;5143904;27;20437;-86
2021/06/15 01:34:33;;;;;;;15.20;7.17;;;20.90;43.40;;;;;;5149157;27;20409;-86
2021/06/15 01:37:05;;;;;;;19.00;5.93;;;20.70;43.30;;;;;;5158686;27;20408;-84
2021/06/15 01:39:37;;;;;;;10.07;4.70;;;20.40;43.80;;;;;;5158116;27;20476;-85
2021/06/15 01:42:09;;;;;;;10.70;4.80;;;20.40;44.30;;;;;;5157933;27;20424;-85
2021/06/15 01:44:39;;;;;;;6.97;4.53;;;20.40;44.90;;;;;;5156440;28;20433;-86
2021/06/15 01:47:09;;;;;;;8.93;5.30;;;20.30;44.80;;;;;;5155528;28;20417;-85
2021/06/15 01:49:41;;;;;;;5.37;4.73;;;20.50;44.10;;;;;;5144726;28;20524;-86
2021/06/15 01:52:10;;;;;;;8.70;5.40;;;20.40;44.50;;;;;;5143384;28;20425;-85
2021/06/15 01:54:38;;;;;;;6.97;5.03;;;20.50;44.00;;;;;;5142458;28;20449;-85
2021/06/15 01:57:07;;;;;;;8.80;4.70;;;20.40;44.20;;;;;;5145530;28;20429;-86
2021/06/15 01:59:35;;;;;;;6.00;4.33;;;20.50;43.90;;;;;;5141987;28;20516;-86
2021/06/15 02:02:05;;;;;;;10.00;4.80;;;20.70;44.10;;;;;;5141495;28;20508;-85
2021/06/15 02:04:35;;;;;;;9.90;4.60;;;20.60;44.30;;;;;;5142223;28;20432;-86
2021/06/15 02:07:05;;;;;;;7.37;4.33;;;20.80;43.70;;;;;;5142085;28;20433;-86
2021/06/15 02:09:35;;;;;;;5.37;4.40;;;20.70;43.60;;;;;;5137511;28;20504;-86
2021/06/15 02:12:02;;;;;;;7.90;4.90;;;21.00;43.80;;;;;;5140448;28;20449;-86
2021/06/15 02:14:30;;;;;;;6.50;4.97;;;21.20;43.30;;;;;;5138271;28;20479;-86
2021/06/15 02:17:00;;;;;;;8.27;5.40;;;21.00;43.30;;;;;;5137618;28;20501;-85
2021/06/15 02:19:31;;;;;;;4.90;4.20;;;20.70;43.70;;;;;;5137385;27;20480;-86
2021/06/15 02:22:02;;;;;;;8.03;4.40;;;20.70;44.30;;;;;;5141303;27;20424;-86
2021/06/15 02:24:35;;;;;;;5.90;4.23;;;20.60;43.80;;;;;;5149585;27;20418;-84
2021/06/15 02:27:03;;;;;;;8.90;5.30;;;20.70;44.40;;;;;;5149217;27;20429;-85
2021/06/15 02:29:30;;;;;;;6.73;4.27;;;20.90;43.90;;;;;;5141807;27;20465;-84
2021/06/15 02:32:00;;;;;;;6.63;4.50;;;21.00;43.30;;;;;;5142480;27;20476;-85
2021/06/15 02:34:30;;;;;;;7.10;4.13;;;20.80;43.00;;;;;;5141502;27;20485;-86
2021/06/15 02:36:58;;;;;;;6.60;4.37;;;20.60;43.80;;;;;;5141815;27;20516;-85
2021/06/15 02:39:29;;;;;;;6.50;4.63;;;20.60;44.00;;;;;;5141269;27;20511;-86
2021/06/15 02:41:57;;;;;;;12.40;5.03;;;20.50;43.60;;;;;;5140736;27;20470;-86
2021/06/15 02:44:29;;;;;;;10.37;4.70;;;20.30;44.20;;;;;;5143427;27;20528;-85
2021/06/15 02:46:58;;;;;;;7.67;4.70;;;19.90;44.70;;;;;;5144722;27;20437;-85
2021/06/15 02:49:30;;;;;;;15.23;5.40;;;19.50;45.50;;;;;;5140172;27;20464;-86
2021/06/15 02:52:06;;;;;;;6.50;5.20;;;19.60;45.50;;;;;;5140544;27;20425;-86
2021/06/15 02:54:37;;;;;;;6.37;4.50;;;19.60;44.90;;;;;;5143263;27;20456;-86
2021/06/15 02:57:05;;;;;;;5.80;4.60;;;19.70;45.90;;;;;;5141516;27;20448;-86
2021/06/15 02:59:32;;;;;;;6.63;4.70;;;20.20;44.70;;;;;;5142379;27;20480;-86
2021/06/15 03:01:59;;;;;;;4.50;3.90;;;20.20;44.70;;;;;;5142006;27;20494;-86
2021/06/15 03:04:27;;;;;;;6.70;5.00;;;20.40;44.90;;;;;;5143359;27;21017;-86
2021/06/15 03:06:54;;;;;;;8.90;4.57;;;20.50;44.80;;;;;;5140333;27;20534;-86
2021/06/15 03:09:21;;;;;;;7.40;5.27;;;20.70;44.10;;;;;;5142581;27;20510;-86
2021/06/15 03:11:52;;;;;;;7.23;5.47;;;20.60;43.40;;;;;;5141465;27;20528;-86
2021/06/15 03:14:22;;;;;;;6.67;5.43;;;20.30;44.80;;;;;;5142366;27;20460;-86
2021/06/15 03:16:50;;;;;;;8.73;5.13;;;20.00;45.10;;;;;;5142932;27;21006;-85
2021/06/15 03:19:23;;;;;;;7.10;4.90;;;19.80;45.10;;;;;;5142370;27;20493;-85
2021/06/15 03:21:56;;;;;;;5.60;4.70;;;19.40;45.50;;;;;;5141900;27;20922;-86
2021/06/15 03:24:27;;;;;;;10.60;6.20;;;19.10;46.60;;;;;;5140248;27;20439;-85
2021/06/15 03:27:00;;;;;;;12.90;4.87;;;19.20;46.30;;;;;;5141192;27;20512;-86
2021/06/15 03:29:31;;;;;;;7.67;5.53;;;19.20;46.90;;;;;;5141791;27;20972;-86
2021/06/15 03:32:03;;;;;;;15.17;6.03;;;19.40;46.50;;;;;;5140805;27;20505;-86
2021/06/15 03:34:32;;;;;;;12.30;5.63;;;19.30;46.20;;;;;;5140625;27;20413;-86
2021/06/15 03:37:00;;;;;;;7.90;6.00;;;19.20;46.60;;;;;;5143555;27;20504;-86
2021/06/15 03:39:31;;;;;;;9.23;5.00;;;19.30;46.30;;;;;;5142271;27;20464;-86
2021/06/15 03:42:02;;;;;;;8.73;4.13;;;19.30;46.20;;;;;;5140881;27;20433;-85
2021/06/15 03:44:29;;;;;;;8.73;5.37;;;19.40;46.70;;;;;;5137913;27;20439;-85
2021/06/15 03:46:59;;;;;;;8.77;5.23;;;19.50;45.30;;;;;;5138678;27;20471;-85
2021/06/15 03:49:27;;;;;;;7.50;5.00;;;19.70;45.80;;;;;;5137515;27;20472;-86
2021/06/15 03:51:58;;;;;;;14.13;5.17;;;19.90;44.90;;;;;;5139956;27;20859;-85
2021/06/15 03:54:29;;;;;;;9.70;5.97;;;20.00;44.40;;;;;;5143717;27;20551;-86
2021/06/15 03:57:00;;;;;;;14.33;5.00;;;20.30;43.90;;;;;;5139867;27;20433;-86
2021/06/15 03:59:30;;;;;;;7.53;4.50;;;20.00;44.60;;;;;;5139975;27;20492;-86
2021/06/15 04:02:00;;;;;;;9.30;6.23;;;19.70;45.30;;;;;;5142159;27;20502;-85
2021/06/15 04:04:32;;;;;;;8.90;6.00;;;19.90;44.40;;;;;;5141383;27;20433;-85
2021/06/15 04:07:00;;;;;;;9.60;5.43;;;19.60;45.50;;;;;;5139948;27;20445;-86
2021/06/15 04:09:34;;;;;;;10.80;5.23;;;19.30;45.80;;;;;;5138092;27;20465;-85
2021/06/15 04:12:01;;;;;;;12.40;5.90;;;19.00;47.80;;;;;;5138231;27;20424;-85
2021/06/15 04:14:30;;;;;;;14.73;5.47;;;18.90;47.10;;;;;;5139365;27;20441;-86
2021/06/15 04:16:59;;;;;;;13.93;6.80;;;18.80;48.00;;;;;;5139148;27;20929;-85
2021/06/15 04:19:30;;;;;;;9.13;5.60;;;18.50;48.70;;;;;;5140864;27;20573;-86
2021/06/15 04:22:00;;;;;;;11.43;6.80;;;18.80;48.20;;;;;;5138545;27;20494;-85
2021/06/15 04:24:29;;;;;;;9.80;6.37;;;19.10;47.20;;;;;;5138602;27;20440;-86
2021/06/15 04:26:59;;;;;;;13.20;5.73;;;19.20;47.10;;;;;;5137946;27;20413;-85
2021/06/15 04:29:26;;;;;;;11.47;6.40;;;19.10;46.70;;;;;;5137634;27;20472;-85
2021/06/15 04:31:59;;;;;;;8.03;5.63;;;18.80;47.60;;;;;;5138000;27;20803;-85
2021/06/15 04:34:28;;;;;;;13.90;6.33;;;18.80;47.90;;;;;;5137818;27;20439;-85
2021/06/15 04:36:59;;;;;;;12.90;5.97;;;18.60;48.40;;;;;;5140586;27;20456;-86
2021/06/15 04:39:32;;;;;;;13.93;6.27;;;18.40;49.10;;;;;;5140646;27;20482;-84
2021/06/15 04:42:02;;;;;;;9.50;5.70;;;18.10;50.10;;;;;;5138617;27;20460;-86
2021/06/15 04:44:32;;;;;;;19.10;5.87;;;18.20;50.10;;;;;;5139841;27;20433;-83
2021/06/15 04:47:03;;;;;;;22.27;6.00;;;18.40;50.20;;;;;;5139002;27;20536;-84
2021/06/15 04:49:33;;;;;;;11.47;7.00;;;18.40;50.20;;;;;;5138215;27;20461;-85
2021/06/15 04:52:03;;;;;;;14.40;5.53;;;18.80;49.10;;;;;;5138339;27;20845;-85
2021/06/15 04:54:37;;;;;;;10.40;6.13;;;19.40;48.20;;;;;;5139732;27;20817;-84
2021/06/15 04:57:09;;;;;;;7.73;5.13;;;19.60;47.20;;;;;;5141491;27;20435;-84
2021/06/15 04:59:37;;;;;;;6.20;5.30;;;19.70;47.80;;;;;;5139995;27;20492;-85
2021/06/15 05:02:06;;;;;;;9.33;6.00;;;19.70;47.60;;;;;;5141253;27;20468;-85
2021/06/15 05:04:34;;;;;;;13.10;6.60;;;19.70;47.60;;;;;;5140800;27;20486;-84
2021/06/15 05:07:02;;;;;;;11.40;5.50;;;20.00;47.10;;;;;;5141246;27;20854;-84
2021/06/15 05:09:34;;;;;;;9.50;5.43;;;20.40;46.10;;;;;;5139750;27;20476;-85
2021/06/15 05:12:03;;;;;;;8.50;5.20;;;20.60;45.70;;;;;;5140200;27;20479;-85
2021/06/15 05:14:35;;;;;;;9.50;5.40;;;20.70;45.50;;;;;;5141208;27;20811;-85
2021/06/15 05:17:04;;;;;;;18.90;5.60;;;20.70;45.50;;;;;;5141166;27;20762;-85
2021/06/15 05:19:31;;;;;;;6.73;4.23;;;20.70;45.70;;;;;;5141422;27;20533;-85
2021/06/15 05:22:03;;;;;;;8.73;5.30;;;20.60;46.10;;;;;;5152306;27;20525;-85
2021/06/15 05:24:49;;;;;;;14.13;5.53;;;20.60;46.50;;;;;;5159517;27;20476;-84
2021/06/15 05:27:18;;;;;;;16.53;5.90;;;20.80;46.00;;;;;;5157903;27;20436;-84
2021/06/15 05:29:46;;;;;;;7.10;5.10;;;21.30;45.70;;;;;;5141864;27;20488;-84
2021/06/15 05:32:13;;;;;;;7.30;5.40;;;21.60;45.00;;;;;;5151732;27;20447;-85
2021/06/15 05:34:40;;;;;;;5.63;4.60;;;21.60;44.60;;;;;;5159467;27;20436;-84
2021/06/15 05:37:08;;;;;;;8.20;4.27;;;21.60;44.60;;;;;;5158986;27;20510;-84
2021/06/15 05:39:37;;;;;;;15.60;5.07;;;21.90;44.60;;;;;;5158268;27;20472;-84
2021/06/15 05:42:04;;;;;;;12.03;4.90;;;23.00;43.80;;;;;;5138523;27;20571;-85
2021/06/15 05:44:32;;;;;;;9.43;5.13;;;24.40;41.20;;;;;;5141299;28;20918;-84
2021/06/15 05:46:59;;;;;;;7.60;4.80;;;26.60;39.20;;;;;;5153538;28;20470;-86
2021/06/15 05:49:26;;;;;;;12.37;4.47;;;28.60;36.80;;;;;;5151121;28;20468;-83
2021/06/15 05:51:59;;;;;;;20.93;4.30;;;30.50;32.40;;;;;;5140017;28;20520;-85
2021/06/15 05:54:26;;;;;;;6.90;4.00;;;31.50;31.20;;;;;;5139437;27;20468;-85
2021/06/15 05:56:54;;;;;;;5.17;3.80;;;32.20;28.40;;;;;;5140995;27;20440;-85
2021/06/15 05:59:21;;;;;;;8.90;3.87;;;32.60;26.70;;;;;;5141228;27;20548;-86
2021/06/15 06:01:48;;;;;;;10.10;4.47;;;32.50;26.70;;;;;;5141118;27;20476;-85
2021/06/15 06:04:19;;;;;;;8.50;4.30;;;32.60;26.70;;;;;;5140493;27;20949;-85
2021/06/15 06:09:30;;;;;;;11.93;4.43;;;34.20;25.40;;;;;;5141044;27;20487;-84
2021/06/15 06:11:58;;;;;;;8.40;3.90;;;34.00;24.60;;;;;;5139566;27;20432;-85
2021/06/15 06:14:25;;;;;;;7.40;3.97;;;33.40;25.20;;;;;;5141913;27;20884;-85
2021/06/15 06:16:52;;;;;;;12.10;4.30;;;32.90;26.00;;;;;;5141442;27;20489;-85
2021/06/15 06:19:20;;;;;;;6.43;4.17;;;33.50;25.80;;;;;;5152151;27;20452;-84
2021/06/15 06:21:47;;;;;;;16.60;4.77;;;34.00;24.30;;;;;;5150329;27;20476;-83
2021/06/15 06:24:14;;;;;;;10.80;5.10;;;33.70;25.10;;;;;;5141260;27;20440;-85
2021/06/15 06:26:41;;;;;;;6.37;4.40;;;33.60;25.40;;;;;;5140723;27;20485;-85
2021/06/15 06:29:09;;;;;;;6.30;4.10;;;33.80;25.20;;;;;;5141258;27;21354;-85
2021/06/15 06:31:36;;;;;;;8.93;4.33;;;34.50;24.60;;;;;;5141048;27;20432;-85
2021/06/15 06:34:03;;;;;;;17.10;4.20;;;34.90;23.10;;;;;;5140465;27;20523;-85
2021/06/15 06:36:30;;;;;;;6.33;4.07;;;35.30;22.80;;;;;;5142779;27;20468;-86
2021/06/15 06:38:57;;;;;;;7.53;4.10;;;35.70;22.50;;;;;;5140503;27;20568;-85
2021/06/15 06:41:24;;;;;;;15.20;3.60;;;36.30;21.40;;;;;;5142572;27;20902;-85
2021/06/15 06:43:51;;;;;;;10.60;3.37;;;36.50;21.50;;;;;;5141294;27;20466;-85
2021/06/15 06:46:20;;;;;;;5.87;3.63;;;37.00;21.60;;;;;;5139391;27;20447;-84
2021/06/15 06:48:47;;;;;;;7.13;3.87;;;37.00;21.50;;;;;;5141066;27;20902;-85
2021/06/15 06:51:14;;;;;;;12.23;3.70;;;37.00;21.80;;;;;;5142393;27;20444;-85
2021/06/15 06:53:41;;;;;;;5.63;3.70;;;37.30;20.80;;;;;;5143488;27;20440;-85
2021/06/15 06:56:08;;;;;;;8.40;4.20;;;37.50;20.10;;;;;;5143383;27;20467;-84
2021/06/15 06:58:36;;;;;;;9.37;3.97;;;37.60;20.00;;;;;;5142559;27;20496;-85
2021/06/15 07:01:03;;;;;;;6.30;4.10;;;37.90;20.10;;;;;;5142809;27;20818;-86
2021/06/15 07:03:32;;;;;;;5.53;3.40;;;38.30;19.10;;;;;;5142902;27;20499;-84
2021/06/15 07:05:59;;;;;;;8.70;3.70;;;37.90;19.50;;;;;;5139362;27;20482;-86
2021/06/15 07:08:26;;;;;;;15.47;4.60;;;37.60;20.00;;;;;;5141433;27;20491;-85
2021/06/15 07:10:53;;;;;;;7.80;3.60;;;37.90;19.30;;;;;;5140850;27;20516;-85
2021/06/15 07:13:20;;;;;;;8.07;3.70;;;37.50;19.90;;;;;;5138954;27;21000;-85
2021/06/15 07:15:47;;;;;;;8.17;3.60;;;37.50;19.70;;;;;;5139893;27;20452;-85
2021/06/15 07:18:14;;;;;;;7.10;4.23;;;37.10;20.00;;;;;;5142371;27;20521;-84
2021/06/15 07:20:42;;;;;;;11.70;4.10;;;36.20;21.20;;;;;;5141174;27;20531;-85
2021/06/15 07:23:09;;;;;;;10.73;3.77;;;36.50;21.20;;;;;;5140059;27;20429;-84
2021/06/15 07:25:36;;;;;;;8.93;3.83;;;37.60;19.50;;;;;;5142743;27;20462;-86
2021/06/15 07:28:04;;;;;;;6.37;3.50;;;37.10;19.60;;;;;;5140244;27;20494;-86
2021/06/15 07:30:31;;;;;;;10.80;3.97;;;36.90;20.00;;;;;;5141369;27;20462;-86
2021/06/15 08:03:58;;;;;;;10.10;4.80;;;39.10;17.40;;;;;;5094437;28;20818;-91
2021/06/15 08:06:25;;;;;;;6.73;3.67;;;39.00;17.70;;;;;;5096013;28;20499;-90
2021/06/15 08:08:52;;;;;;;5.33;3.23;;;38.90;17.10;;;;;;5095289;28;20435;-90
2021/06/15 08:11:19;;;;;;;9.20;3.97;;;38.20;17.00;;;;;;5096578;28;20907;-89
2021/06/15 08:13:46;;;;;;;4.67;3.20;;;37.70;18.20;;;;;;5094248;28;20453;-89
2021/06/15 08:16:14;;;;;;;8.60;3.90;;;37.50;18.90;;;;;;5095587;28;20442;-90
2021/06/15 08:18:40;;;;;;;11.33;3.80;;;37.90;18.00;;;;;;5094522;28;20466;-90
2021/06/15 08:21:09;;;;;;;9.10;3.40;;;37.70;18.30;;;;;;5095567;28;20557;-90
2021/06/15 08:23:36;;;;;;;8.83;3.80;;;38.30;17.80;;;;;;5094980;28;20450;-89
2021/06/15 08:26:03;;;;;;;6.63;3.40;;;38.20;18.20;;;;;;5095924;28;20540;-90
2021/06/15 08:28:30;;;;;;;9.47;4.37;;;39.10;16.60;;;;;;5095039;28;20483;-90
2021/06/15 08:30:57;;;;;;;10.30;3.27;;;39.50;16.80;;;;;;5094706;28;20441;-89
2021/06/15 08:33:24;;;;;;;14.20;4.33;;;39.00;17.20;;;;;;5094402;28;20508;-90
2021/06/15 08:35:51;;;;;;;12.87;6.60;;;39.10;17.60;;;;;;5094060;28;20537;-90
2021/06/15 08:38:20;;;;;;;5.17;3.70;;;38.90;17.80;;;;;;5094560;28;20435;-90
2021/06/15 08:40:47;;;;;;;5.93;3.90;;;38.20;18.40;;;;;;5095449;28;20474;-90
2021/06/15 08:43:15;;;;;;;4.97;3.57;;;38.20;18.60;;;;;;5095043;28;20490;-90
2021/06/15 08:45:42;;;;;;;9.27;3.53;;;38.00;18.40;;;;;;5096069;28;20525;-90
2021/06/15 08:48:10;;;;;;;10.13;4.20;;;37.90;18.60;;;;;;5094659;28;20474;-90
2021/06/15 08:50:38;;;;;;;10.17;4.03;;;37.60;18.70;;;;;;5094584;28;20481;-90
2021/06/15 08:53:05;;;;;;;12.43;3.13;;;37.70;17.90;;;;;;5094370;28;20461;-90
2021/06/15 08:55:35;;;;;;;6.50;3.63;;;37.60;17.40;;;;;;5095123;28;20483;-90
2021/06/15 08:58:24;;;;;;;8.23;2.73;;;36.30;18.70;;;;;;5094451;28;20446;-90
2021/06/15 09:00:51;;;;;;;8.67;3.00;;;36.20;17.80;;;;;;5094663;28;20481;-89
2021/06/15 09:03:18;;;;;;;5.90;3.57;;;35.90;19.10;;;;;;5095188;28;21115;-90
2021/06/15 09:05:45;;;;;;;11.17;3.10;;;36.00;18.30;;;;;;5095130;28;20474;-89
2021/06/15 09:08:13;;;;;;;18.53;3.20;;;35.10;18.50;;;;;;5094888;28;20831;-89
2021/06/15 09:10:43;;;;;;;7.77;3.17;;;35.70;18.50;;;;;;5095415;28;20438;-89
2021/06/15 09:13:38;;;;;;;6.23;3.10;;;35.60;18.10;;;;;;5100084;28;20470;-90
2021/06/15 09:16:23;;;;;;;5.93;2.80;;;35.90;18.30;;;;;;5097563;28;20532;-89
2021/06/15 09:18:51;;;;;;;5.23;2.70;;;36.00;18.10;;;;;;5097152;28;20437;-89
2021/06/15 09:21:40;;;;;;;6.00;2.93;;;35.80;17.90;;;;;;5096694;28;20446;-90
2021/06/15 09:24:10;;;;;;;5.33;3.27;;;35.30;18.80;;;;;;5097117;28;20813;-89
2021/06/15 09:27:00;;;;;;;8.80;2.67;;;34.40;20.20;;;;;;5097839;28;20477;-88
2021/06/15 09:29:47;;;;;;;7.70;3.13;;;34.00;20.20;;;;;;5098190;28;20484;-90
2021/06/15 09:32:17;;;;;;;14.50;2.93;;;33.70;20.00;;;;;;5103724;28;20458;-88
2021/06/15 09:34:55;;;;;;;6.30;3.20;;;33.10;20.80;;;;;;5102021;28;20426;-90
2021/06/15 09:37:34;;;;;;;13.30;3.50;;;32.90;21.30;;;;;;5097692;28;20442;-89
2021/06/15 09:40:03;;;;;;;5.33;2.63;;;32.60;21.40;;;;;;5097657;28;20514;-89
2021/06/15 09:42:32;;;;;;;7.67;2.63;;;32.60;21.20;;;;;;5098219;28;20533;-90
2021/06/15 09:44:59;;;;;;;11.63;3.00;;;32.80;20.40;;;;;;5096772;28;20485;-89
2021/06/15 09:47:26;;;;;;;7.70;3.30;;;33.00;21.40;;;;;;5098346;28;20454;-89
2021/06/15 09:49:54;;;;;;;5.30;2.87;;;32.20;21.20;;;;;;5098339;28;20478;-90
2021/06/15 09:52:23;;;;;;;6.00;2.83;;;32.60;21.10;;;;;;5097940;28;20497;-89
2021/06/15 09:54:52;;;;;;;9.27;3.20;;;32.70;21.50;;;;;;5098490;28;20447;-89
2021/06/15 09:57:22;;;;;;;6.50;3.13;;;32.00;21.40;;;;;;5101965;28;20539;-90
2021/06/15 10:00:02;;;;;;;4.20;2.77;;;31.90;22.10;;;;;;5098186;28;20505;-90
2021/06/15 10:02:29;;;;;;;6.00;2.73;;;32.30;21.10;;;;;;5095111;28;20490;-89
2021/06/15 10:04:56;;;;;;;13.93;3.20;;;31.40;23.10;;;;;;5095026;28;20477;-89
2021/06/15 10:07:27;;;;;;;7.53;3.20;;;31.10;23.30;;;;;;5094882;28;20477;-90
2021/06/15 10:09:55;;;;;;;7.10;3.07;;;31.40;23.20;;;;;;5095127;28;20472;-89
2021/06/15 10:12:23;;;;;;;13.60;4.20;;;31.90;22.10;;;;;;5096272;28;20520;-89
2021/06/15 10:14:52;;;;;;;4.27;2.97;;;32.10;22.20;;;;;;5095216;28;20442;-89
2021/06/15 10:17:21;;;;;;;6.50;3.30;;;31.90;21.90;;;;;;5095002;28;20446;-89
2021/06/15 10:19:47;;;;;;;6.47;2.90;;;32.20;21.30;;;;;;5096970;28;20471;-89
2021/06/15 10:22:15;;;;;;;5.73;2.97;;;31.40;21.30;;;;;;5095979;28;20569;-89
2021/06/15 10:24:43;;;;;;;7.00;2.63;;;31.90;22.20;;;;;;5095862;28;20446;-89
2021/06/15 10:27:12;;;;;;;4.03;2.87;;;32.30;20.70;;;;;;5096690;28;20434;-89
2021/06/15 10:29:43;;;;;;;8.57;3.47;;;32.30;21.30;;;;;;5096998;28;20534;-89
2021/06/15 10:32:15;;;;;;;3.20;2.90;;;32.60;21.90;;;;;;5097868;28;20454;-89
2021/06/15 10:34:59;;;;;;;8.17;3.20;;;32.50;20.30;;;;;;5096576;28;20482;-89
2021/06/15 10:37:47;;;;;;;3.80;2.90;;;31.90;21.30;;;;;;5097532;28;20430;-89
2021/06/15 10:40:50;;;;;;;7.93;3.10;;;32.20;20.50;;;;;;5103016;28;20495;-88
2021/06/15 10:43:29;;;;;;;9.27;2.90;;;31.50;22.00;;;;;;5106625;28;20535;-90
2021/06/15 10:46:06;;;;;;;2.83;2.27;;;31.40;22.20;;;;;;5103329;28;20422;-89
2021/06/15 10:48:45;;;;;;;4.50;3.27;;;30.90;22.30;;;;;;5105316;28;20513;-89
2021/06/15 10:51:22;;;;;;;5.40;2.70;;;31.10;22.70;;;;;;5114749;28;20515;-89
2021/06/15 10:53:50;;;;;;;6.97;2.70;;;31.60;22.40;;;;;;5118952;28;20456;-88
2021/06/15 10:56:19;;;;;;;7.23;3.10;;;32.40;21.70;;;;;;5117514;28;20450;-89
2021/06/15 10:59:06;;;;;;;12.07;4.13;;;32.10;21.50;;;;;;5119370;28;20464;-86
2021/06/15 11:01:34;;;;;;;4.73;3.07;;;31.90;21.60;;;;;;5115978;28;20452;-88
2021/06/15 11:04:03;;;;;;;9.67;3.57;;;31.20;22.00;;;;;;5117119;28;20492;-89
2021/06/15 11:06:47;;;;;;;16.23;3.30;;;31.20;22.30;;;;;;5114964;28;20443;-88
2021/06/15 11:09:27;;;;;;;7.63;3.40;;;31.70;21.60;;;;;;5112849;28;20479;-90
2021/06/15 11:12:20;;;;;;;7.33;3.00;;;31.50;21.70;;;;;;5111919;28;20492;-88
2021/06/15 11:15:14;;;;;;;6.37;3.47;;;30.80;22.20;;;;;;5117572;28;20438;-88
2021/06/15 11:17:50;;;;;;;6.33;3.40;;;30.30;22.50;;;;;;5113354;28;20430;-89
2021/06/15 11:20:31;;;;;;;7.03;3.13;;;30.50;22.30;;;;;;5111672;28;20410;-88
2021/06/15 11:23:19;;;;;;;6.80;3.50;;;31.10;21.90;;;;;;5101485;28;20572;-90
2021/06/15 11:25:47;;;;;;;4.13;2.80;;;31.70;22.10;;;;;;5103699;28;20456;-89
2021/06/15 11:28:40;;;;;;;7.20;3.20;;;31.60;21.60;;;;;;5096636;28;20471;-90
2021/06/15 11:31:26;;;;;;;7.73;3.40;;;31.80;20.80;;;;;;5096831;28;20513;-90
2021/06/15 11:34:26;;;;;;;10.83;3.30;;;31.90;21.60;;;;;;5096373;28;20489;-89
2021/06/15 11:36:58;;;;;;;12.33;3.10;;;31.10;21.40;;;;;;5096276;28;20426;-90
2021/06/15 11:39:38;;;;;;;15.77;3.10;;;31.60;21.20;;;;;;5096668;28;20833;-90
2021/06/15 11:42:24;;;;;;;13.50;3.03;;;31.90;21.40;;;;;;5098731;28;20970;-90
2021/06/15 11:45:00;;;;;;;5.00;2.53;;;31.70;20.70;;;;;;5099282;28;20525;-89
2021/06/15 11:47:36;;;;;;;8.53;2.70;;;31.70;20.40;;;;;;5100247;28;20437;-89
2021/06/15 11:50:20;;;;;;;7.40;3.20;;;32.20;20.90;;;;;;5096435;28;20430;-90
2021/06/15 11:52:51;;;;;;;10.63;3.30;;;32.40;20.50;;;;;;5096580;28;20451;-90
2021/06/15 11:55:23;;;;;;;8.60;2.70;;;32.70;20.00;;;;;;5096453;28;20473;-90
2021/06/15 11:57:50;;;;;;;9.70;2.83;;;32.70;19.50;;;;;;5097930;28;20434;-90
2021/06/15 12:00:19;;;;;;;8.03;3.40;;;32.60;19.40;;;;;;5096806;28;20470;-89
2021/06/15 12:02:46;;;;;;;4.40;2.43;;;32.60;19.40;;;;;;5096152;28;20525;-90
2021/06/15 12:05:15;;;;;;;12.50;2.83;;;32.80;19.50;;;;;;5098010;28;20527;-90
2021/06/15 12:07:44;;;;;;;7.10;3.20;;;32.90;19.60;;;;;;5097300;28;20478;-88
2021/06/15 12:10:14;;;;;;;7.47;2.93;;;32.60;19.40;;;;;;5096941;28;20486;-89
2021/06/15 12:13:09;;;;;;;6.20;3.30;;;32.30;19.90;;;;;;5097368;28;20832;-89
2021/06/15 12:15:45;;;;;;;3.90;2.77;;;32.40;19.70;;;;;;5097479;28;20442;-89
2021/06/15 12:18:16;;;;;;;8.63;3.63;;;32.50;20.10;;;;;;5097837;28;20497;-89
2021/06/15 12:20:44;;;;;;;4.37;3.00;;;32.60;20.70;;;;;;5097679;28;20584;-90
2021/06/15 12:23:26;;;;;;;3.60;2.87;;;32.50;20.50;;;;;;5096708;28;20474;-89
2021/06/15 12:25:54;;;;;;;6.40;3.30;;;32.30;20.10;;;;;;5096876;28;20491;-90
2021/06/15 12:28:24;;;;;;;5.50;2.90;;;32.60;19.90;;;;;;5098142;28;20511;-88
2021/06/15 12:31:06;;;;;;;9.50;2.83;;;32.80;19.50;;;;;;5097072;28;20486;-88
2021/06/15 12:33:33;;;;;;;3.53;2.50;;;32.90;19.60;;;;;;5097333;28;20549;-89
2021/06/15 12:36:01;;;;;;;3.63;2.57;;;33.20;19.20;;;;;;5097559;28;20562;-89
2021/06/15 12:38:28;;;;;;;6.70;3.60;;;32.80;19.50;;;;;;5098709;28;20515;-88
2021/06/15 12:40:55;;;;;;;4.80;2.83;;;32.80;19.50;;;;;;5100667;28;20435;-89
2021/06/15 12:43:27;;;;;;;10.07;2.60;;;32.90;19.40;;;;;;5100664;28;20478;-88
2021/06/15 12:46:07;;;;;;;7.43;2.83;;;32.50;19.40;;;;;;5100735;28;20403;-89
2021/06/15 12:48:35;;;;;;;4.97;3.00;;;32.40;19.30;;;;;;5099931;28;20445;-89
2021/06/15 12:51:06;;;;;;;6.33;3.00;;;32.60;19.40;;;;;;5099570;28;20449;-88
2021/06/15 12:53:35;;;;;;;5.80;3.43;;;32.80;19.50;;;;;;5100006;28;20454;-89
2021/06/15 12:56:13;;;;;;;11.53;3.53;;;32.80;19.50;;;;;;5099864;28;20455;-89
2021/06/15 12:58:42;;;;;;;5.17;2.93;;;32.30;20.00;;;;;;5099463;28;20426;-90
2021/06/15 13:01:16;;;;;;;4.00;2.97;;;32.30;20.50;;;;;;5099608;28;20434;-89
2021/06/15 13:03:48;;;;;;;15.37;3.10;;;32.20;20.10;;;;;;5100155;28;20490;-89
2021/06/15 13:06:16;;;;;;;15.73;3.20;;;32.10;20.30;;;;;;5095126;28;20430;-89
2021/06/15 13:08:43;;;;;;;4.63;2.60;;;32.40;19.70;;;;;;5095669;28;20525;-89
2021/06/15 13:11:15;;;;;;;3.17;2.10;;;32.30;18.50;;;;;;5095061;28;20911;-89
2021/06/15 13:14:01;;;;;;;6.37;2.77;;;32.60;17.60;;;;;;5094683;28;20490;-89
2021/06/15 13:16:36;;;;;;;6.30;3.07;;;32.80;19.50;;;;;;5094694;28;20971;-89
2021/06/15 13:19:05;;;;;;;4.53;3.00;;;32.70;19.50;;;;;;5096006;28;20484;-90
2021/06/15 13:21:50;;;;;;;5.27;2.90;;;32.10;19.10;;;;;;5097650;28;20431;-88
2021/06/15 13:24:18;;;;;;;4.97;3.13;;;31.90;19.90;;;;;;5097872;28;20502;-90
2021/06/15 13:26:50;;;;;;;6.87;2.80;;;32.00;20.30;;;;;;5098350;28;20502;-89
2021/06/15 13:29:28;;;;;;;4.20;2.87;;;32.10;20.30;;;;;;5098410;28;20513;-89
2021/06/15 13:31:55;;;;;;;6.93;3.00;;;32.10;19.40;;;;;;5098003;28;20549;-89
2021/06/15 13:34:22;;;;;;;5.63;2.90;;;32.50;19.40;;;;;;5097548;28;20440;-89
2021/06/15 13:36:49;;;;;;;4.63;2.80;;;32.20;19.20;;;;;;5095891;28;20540;-89